Marked Tree, Arkansas
Current Conditions -  °F | °C
As of 4:53 PM on Thursday 18 Dec 2014 (Local Time) from KJBR Reporting Station
Overcast Overcast  
Wind Chill: 36°   Ceiling: 2700
Heat Index: 41°   Visibility: 10mi
Dew Point: 37°   Wind: 7mph
Humidity: 86%   Direction: 70°ENE
Pressure: 30.2"   Gusts: NA
Location:  35.53°N, 90.42°W
Report Text: KJBR 182253Z AUTO 07006KT 10SM OVC027 05/03 A3020 RMK AO2 SLP229 T00500028
Loading
Personal Weather Stations






























Interactive Weather Map New forecast layout! Learn more

10-Day Weather Forecast

Advertisements
Track Severe Weather on mobile